sensor_id;sensor_type;location;lat;lon;timestamp;pressure;altitude;pressure_sealevel;temperature;humidity
46007;BME280;31738;50.188;8.524;2022-09-17T00:00:32;98390.84;;;12.01;81.52
46007;BME280;31738;50.188;8.524;2022-09-17T00:02:58;98381.19;;;12.00;81.01
46007;BME280;31738;50.188;8.524;2022-09-17T00:05:23;98387.13;;;11.97;81.11
46007;BME280;31738;50.188;8.524;2022-09-17T00:07:50;98392.03;;;11.95;81.27
46007;BME280;31738;50.188;8.524;2022-09-17T00:10:17;98383.97;;;11.95;81.61
46007;BME280;31738;50.188;8.524;2022-09-17T00:12:43;98379.66;;;11.94;81.63
46007;BME280;31738;50.188;8.524;2022-09-17T00:15:09;98374.78;;;11.96;81.71
46007;BME280;31738;50.188;8.524;2022-09-17T00:17:35;98383.44;;;11.93;81.73
46007;BME280;31738;50.188;8.524;2022-09-17T00:20:00;98381.03;;;11.92;81.69
46007;BME280;31738;50.188;8.524;2022-09-17T00:22:26;98381.03;;;11.92;81.94
46007;BME280;31738;50.188;8.524;2022-09-17T00:24:52;98377.06;;;11.89;81.96
46007;BME280;31738;50.188;8.524;2022-09-17T00:27:17;98364.69;;;11.88;82.38
46007;BME280;31738;50.188;8.524;2022-09-17T00:29:43;98372.25;;;11.86;82.21
46007;BME280;31738;50.188;8.524;2022-09-17T00:32:08;98378.19;;;11.83;82.24
46007;BME280;31738;50.188;8.524;2022-09-17T00:34:34;98383.56;;;11.83;82.07
46007;BME280;31738;50.188;8.524;2022-09-17T00:37:00;98371.81;;;11.79;82.17
46007;BME280;31738;50.188;8.524;2022-09-17T00:39:25;98367.81;;;11.77;82.46
46007;BME280;31738;50.188;8.524;2022-09-17T00:41:51;98370.00;;;11.75;82.21
46007;BME280;31738;50.188;8.524;2022-09-17T00:44:49;98380.59;;;11.66;82.42
46007;BME280;31738;50.188;8.524;2022-09-17T00:50:12;98391.13;;;11.63;82.25
46007;BME280;31738;50.188;8.524;2022-09-17T00:52:41;98391.38;;;11.61;82.46
46007;BME280;31738;50.188;8.524;2022-09-17T00:55:25;98392.28;;;11.52;82.50
46007;BME280;31738;50.188;8.524;2022-09-17T00:57:56;98388.44;;;11.58;83.12
46007;BME280;31738;50.188;8.524;2022-09-17T01:00:23;98387.34;;;11.59;82.82
46007;BME280;31738;50.188;8.524;2022-09-17T01:02:50;98379.28;;;11.59;83.39
46007;BME280;31738;50.188;8.524;2022-09-17T01:05:21;98381.19;;;11.58;83.06
46007;BME280;31738;50.188;8.524;2022-09-17T01:07:56;98381.78;;;11.55;83.24
46007;BME280;31738;50.188;8.524;2022-09-17T01:10:33;98382.28;;;11.57;83.59
46007;BME280;31738;50.188;8.524;2022-09-17T01:13:23;98387.94;;;11.56;83.38
46007;BME280;31738;50.188;8.524;2022-09-17T01:16:06;98386.09;;;11.51;83.39
46007;BME280;31738;50.188;8.524;2022-09-17T01:26:54;98382.94;;;11.49;83.61
46007;BME280;31738;50.188;8.524;2022-09-17T01:32:07;98388.78;;;11.51;83.55
46007;BME280;31738;50.188;8.524;2022-09-17T01:37:30;98381.78;;;11.55;83.67
46007;BME280;31738;50.188;8.524;2022-09-17T01:40:04;98385.78;;;11.58;83.82
46007;BME280;31738;50.188;8.524;2022-09-17T01:42:53;98386.88;;;11.57;83.90
46007;BME280;31738;50.188;8.524;2022-09-17T01:45:37;98390.31;;;11.57;83.79
46007;BME280;31738;50.188;8.524;2022-09-17T01:48:12;98398.91;;;11.59;83.96
46007;BME280;31738;50.188;8.524;2022-09-17T01:50:52;98408.06;;;11.58;83.58
46007;BME280;31738;50.188;8.524;2022-09-17T01:53:24;98401.84;;;11.63;84.10
46007;BME280;31738;50.188;8.524;2022-09-17T01:55:54;98396.72;;;11.66;84.09
46007;BME280;31738;50.188;8.524;2022-09-17T01:58:32;98396.72;;;11.66;83.87
46007;BME280;31738;50.188;8.524;2022-09-17T02:01:04;98384.88;;;11.67;84.33
46007;BME280;31738;50.188;8.524;2022-09-17T02:03:36;98387.28;;;11.69;84.37
46007;BME280;31738;50.188;8.524;2022-09-17T02:06:08;98392.94;;;11.67;84.10
46007;BME280;31738;50.188;8.524;2022-09-17T02:08:40;98391.06;;;11.68;84.54
46007;BME280;31738;50.188;8.524;2022-09-17T02:11:12;98391.84;;;11.68;84.46
46007;BME280;31738;50.188;8.524;2022-09-17T02:16:16;98390.19;;;11.72;84.28
46007;BME280;31738;50.188;8.524;2022-09-17T02:18:49;98382.13;;;11.72;84.67
46007;BME280;31738;50.188;8.524;2022-09-17T02:24:17;98383.47;;;11.70;84.51
46007;BME280;31738;50.188;8.524;2022-09-17T02:26:55;98391.25;;;11.71;84.75
46007;BME280;31738;50.188;8.524;2022-09-17T02:29:28;98397.50;;;11.67;84.65
46007;BME280;31738;50.188;8.524;2022-09-17T02:31:55;98394.59;;;11.63;84.93
46007;BME280;31738;50.188;8.524;2022-09-17T02:34:21;98391.34;;;11.66;85.14
46007;BME280;31738;50.188;8.524;2022-09-17T02:36:49;98385.69;;;11.68;85.20
46007;BME280;31738;50.188;8.524;2022-09-17T02:39:14;98390.25;;;11.67;85.17
46007;BME280;31738;50.188;8.524;2022-09-17T02:48:30;98386.56;;;11.63;85.81
46007;BME280;31738;50.188;8.524;2022-09-17T02:51:19;98384.66;;;11.64;85.87
46007;BME280;31738;50.188;8.524;2022-09-17T02:54:15;98380.63;;;11.61;86.31
46007;BME280;31738;50.188;8.524;2022-09-17T03:02:06;98384.66;;;11.64;86.40
46007;BME280;31738;50.188;8.524;2022-09-17T03:04:34;98372.53;;;11.66;86.69
46007;BME280;31738;50.188;8.524;2022-09-17T03:07:07;98370.34;;;11.68;86.93
46007;BME280;31738;50.188;8.524;2022-09-17T03:09:34;98355.84;;;11.69;86.91
46007;BME280;31738;50.188;8.524;2022-09-17T03:12:00;98351.03;;;11.66;87.23
46007;BME280;31738;50.188;8.524;2022-09-17T03:14:26;98353.44;;;11.68;87.66
46007;BME280;31738;50.188;8.524;2022-09-17T03:16:52;98348.84;;;11.68;87.95
46007;BME280;31738;50.188;8.524;2022-09-17T03:19:17;98348.28;;;11.71;88.27
46007;BME280;31738;50.188;8.524;2022-09-17T03:21:43;98359.59;;;11.68;88.70
46007;BME280;31738;50.188;8.524;2022-09-17T03:24:08;98356.41;;;11.66;88.49
46007;BME280;31738;50.188;8.524;2022-09-17T03:26:36;98358.00;;;11.67;88.70
46007;BME280;31738;50.188;8.524;2022-09-17T03:29:02;98350.25;;;11.66;88.85
46007;BME280;31738;50.188;8.524;2022-09-17T03:31:27;98353.75;;;11.61;89.01
46007;BME280;31738;50.188;8.524;2022-09-17T03:33:53;98351.13;;;11.56;89.02
46007;BME280;31738;50.188;8.524;2022-09-17T03:36:19;98350.31;;;11.56;88.78
46007;BME280;31738;50.188;8.524;2022-09-17T03:38:44;98363.28;;;11.54;88.90
46007;BME280;31738;50.188;8.524;2022-09-17T03:41:10;98358.19;;;11.52;88.88
46007;BME280;31738;50.188;8.524;2022-09-17T03:43:35;98359.25;;;11.51;89.23
46007;BME280;31738;50.188;8.524;2022-09-17T03:46:01;98373.19;;;11.53;89.68
46007;BME280;31738;50.188;8.524;2022-09-17T03:48:27;98364.63;;;11.51;89.37
46007;BME280;31738;50.188;8.524;2022-09-17T03:50:54;98356.00;;;11.54;89.67
46007;BME280;31738;50.188;8.524;2022-09-17T03:53:20;98360.00;;;11.57;89.79
46007;BME280;31738;50.188;8.524;2022-09-17T03:55:45;98366.97;;;11.58;89.73
46007;BME280;31738;50.188;8.524;2022-09-17T03:58:11;98360.50;;;11.59;90.03
46007;BME280;31738;50.188;8.524;2022-09-17T04:00:36;98364.56;;;11.56;89.79
46007;BME280;31738;50.188;8.524;2022-09-17T04:03:03;98379.28;;;11.59;90.21
46007;BME280;31738;50.188;8.524;2022-09-17T04:05:29;98377.41;;;11.59;90.14
46007;BME280;31738;50.188;8.524;2022-09-17T04:07:54;98385.47;;;11.59;90.14
46007;BME280;31738;50.188;8.524;2022-09-17T04:10:20;98375.84;;;11.58;90.63
46007;BME280;31738;50.188;8.524;2022-09-17T04:12:45;98387.66;;;11.57;90.46
46007;BME280;31738;50.188;8.524;2022-09-17T04:15:11;98393.53;;;11.59;90.69
46007;BME280;31738;50.188;8.524;2022-09-17T04:17:36;98389.75;;;11.60;90.25
46007;BME280;31738;50.188;8.524;2022-09-17T04:20:03;98390.03;;;11.59;90.31
46007;BME280;31738;50.188;8.524;2022-09-17T04:22:30;98397.09;;;11.55;90.88
46007;BME280;31738;50.188;8.524;2022-09-17T04:24:56;98388.22;;;11.54;90.89
46007;BME280;31738;50.188;8.524;2022-09-17T04:27:21;98394.69;;;11.53;90.87
46007;BME280;31738;50.188;8.524;2022-09-17T04:29:46;98397.38;;;11.53;90.82
46007;BME280;31738;50.188;8.524;2022-09-17T04:32:12;98403.28;;;11.55;90.86
46007;BME280;31738;50.188;8.524;2022-09-17T04:34:37;98401.66;;;11.54;90.64
46007;BME280;31738;50.188;8.524;2022-09-17T04:37:03;98408.63;;;11.55;90.80
46007;BME280;31738;50.188;8.524;2022-09-17T04:39:28;98402.16;;;11.56;90.68
46007;BME280;31738;50.188;8.524;2022-09-17T04:41:54;98414.22;;;11.59;90.88
46007;BME280;31738;50.188;8.524;2022-09-17T04:44:19;98411.25;;;11.60;90.96
46007;BME280;31738;50.188;8.524;2022-09-17T04:46:45;98412.31;;;11.64;91.04
46007;BME280;31738;50.188;8.524;2022-09-17T04:49:10;98415.22;;;11.68;90.85
46007;BME280;31738;50.188;8.524;2022-09-17T04:51:36;98421.19;;;11.65;90.70
46007;BME280;31738;50.188;8.524;2022-09-17T04:54:02;98426.28;;;11.61;90.60
46007;BME280;31738;50.188;8.524;2022-09-17T04:56:27;98418.81;;;11.58;90.69
46007;BME280;31738;50.188;8.524;2022-09-17T04:58:53;98427.44;;;11.55;90.45
46007;BME280;31738;50.188;8.524;2022-09-17T05:01:18;98422.56;;;11.57;91.11
46007;BME280;31738;50.188;8.524;2022-09-17T05:03:44;98433.00;;;11.59;90.79
46007;BME280;31738;50.188;8.524;2022-09-17T05:06:10;98423.59;;;11.61;90.83
46007;BME280;31738;50.188;8.524;2022-09-17T05:08:35;98419.84;;;11.62;90.62
46007;BME280;31738;50.188;8.524;2022-09-17T05:11:01;98416.59;;;11.65;90.78
46007;BME280;31738;50.188;8.524;2022-09-17T05:13:27;98423.59;;;11.66;90.68
46007;BME280;31738;50.188;8.524;2022-09-17T05:15:53;98429.44;;;11.68;90.62
46007;BME280;31738;50.188;8.524;2022-09-17T05:18:21;98437.00;;;11.66;90.49
46007;BME280;31738;50.188;8.524;2022-09-17T05:20:46;98432.72;;;11.65;90.77
46007;BME280;31738;50.188;8.524;2022-09-17T05:23:12;98428.44;;;11.64;91.02
46007;BME280;31738;50.188;8.524;2022-09-17T05:25:37;98437.00;;;11.66;90.94
46007;BME280;31738;50.188;8.524;2022-09-17T05:28:03;98428.97;;;11.66;90.98
46007;BME280;31738;50.188;8.524;2022-09-17T05:30:28;98442.59;;;11.70;91.01
46007;BME280;31738;50.188;8.524;2022-09-17T05:33:01;98438.56;;;11.72;90.77
46007;BME280;31738;50.188;8.524;2022-09-17T05:35:28;98430.50;;;11.72;90.98
46007;BME280;31738;50.188;8.524;2022-09-17T05:38:00;98443.34;;;11.75;90.40
46007;BME280;31738;50.188;8.524;2022-09-17T05:40:27;98439.56;;;11.76;90.36
46007;BME280;31738;50.188;8.524;2022-09-17T05:42:57;98446.03;;;11.75;90.23
46007;BME280;31738;50.188;8.524;2022-09-17T05:45:24;98454.38;;;11.74;90.57
46007;BME280;31738;50.188;8.524;2022-09-17T05:47:57;98469.94;;;11.77;90.61
46007;BME280;31738;50.188;8.524;2022-09-17T05:50:24;98465.34;;;11.77;91.00
46007;BME280;31738;50.188;8.524;2022-09-17T05:52:51;98461.59;;;11.78;90.28
46007;BME280;31738;50.188;8.524;2022-09-17T05:55:18;98466.38;;;11.81;90.34
46007;BME280;31738;50.188;8.524;2022-09-17T05:57:43;98462.31;;;11.84;90.51
46007;BME280;31738;50.188;8.524;2022-09-17T06:00:09;98465.22;;;11.87;90.45
46007;BME280;31738;50.188;8.524;2022-09-17T06:02:37;98457.69;;;11.89;90.59
46007;BME280;31738;50.188;8.524;2022-09-17T06:05:03;98460.88;;;11.91;90.11
46007;BME280;31738;50.188;8.524;2022-09-17T06:07:30;98467.28;;;11.95;90.09
46007;BME280;31738;50.188;8.524;2022-09-17T06:09:55;98484.41;;;11.99;90.01
46007;BME280;31738;50.188;8.524;2022-09-17T06:12:21;98469.31;;;12.03;89.81
46007;BME280;31738;50.188;8.524;2022-09-17T06:14:47;98465.47;;;12.09;89.70
46007;BME280;31738;50.188;8.524;2022-09-17T06:17:13;98476.16;;;12.15;89.90
46007;BME280;31738;50.188;8.524;2022-09-17T06:19:38;98476.38;;;12.18;89.47
46007;BME280;31738;50.188;8.524;2022-09-17T06:22:04;98479.31;;;12.22;89.02
46007;BME280;31738;50.188;8.524;2022-09-17T06:24:30;98469.56;;;12.26;89.32
46007;BME280;31738;50.188;8.524;2022-09-17T06:26:56;98479.97;;;12.32;88.94
46007;BME280;31738;50.188;8.524;2022-09-17T06:29:22;98486.06;;;12.38;88.89
46007;BME280;31738;50.188;8.524;2022-09-17T06:31:48;98491.31;;;12.48;88.74
46007;BME280;31738;50.188;8.524;2022-09-17T06:34:13;98490.63;;;12.56;88.76
46007;BME280;31738;50.188;8.524;2022-09-17T06:36:39;98496.75;;;12.61;88.35
46007;BME280;31738;50.188;8.524;2022-09-17T06:39:05;98503.13;;;12.65;88.54
46007;BME280;31738;50.188;8.524;2022-09-17T06:41:30;98504.94;;;12.70;87.94
46007;BME280;31738;50.188;8.524;2022-09-17T06:43:56;98508.09;;;12.77;87.79
46007;BME280;31738;50.188;8.524;2022-09-17T06:46:21;98509.59;;;12.83;87.44
46007;BME280;31738;50.188;8.524;2022-09-17T06:48:47;98515.97;;;12.87;87.14
46007;BME280;31738;50.188;8.524;2022-09-17T06:51:13;98517.09;;;12.86;86.97
46007;BME280;31738;50.188;8.524;2022-09-17T06:53:39;98514.41;;;12.86;87.06
46007;BME280;31738;50.188;8.524;2022-09-17T06:56:06;98520.84;;;12.85;86.70
46007;BME280;31738;50.188;8.524;2022-09-17T06:58:34;98521.97;;;12.84;87.27
46007;BME280;31738;50.188;8.524;2022-09-17T07:01:02;98527.34;;;12.84;87.07
46007;BME280;31738;50.188;8.524;2022-09-17T07:03:29;98520.94;;;12.80;86.54
46007;BME280;31738;50.188;8.524;2022-09-17T07:05:55;98524.53;;;12.75;86.68
46007;BME280;31738;50.188;8.524;2022-09-17T07:08:25;98528.50;;;12.78;86.78
46007;BME280;31738;50.188;8.524;2022-09-17T07:10:54;98530.25;;;12.87;86.82
46007;BME280;31738;50.188;8.524;2022-09-17T07:13:20;98525.81;;;12.96;86.09
46007;BME280;31738;50.188;8.524;2022-09-17T07:15:59;98532.72;;;13.02;85.75
46007;BME280;31738;50.188;8.524;2022-09-17T07:18:28;98542.31;;;13.08;85.62
46007;BME280;31738;50.188;8.524;2022-09-17T07:20:57;98551.50;;;13.07;85.44
46007;BME280;31738;50.188;8.524;2022-09-17T07:23:28;98551.81;;;13.06;85.49
46007;BME280;31738;50.188;8.524;2022-09-17T07:25:59;98551.31;;;12.99;84.70
46007;BME280;31738;50.188;8.524;2022-09-17T07:28:25;98548.09;;;13.02;84.89
46007;BME280;31738;50.188;8.524;2022-09-17T07:30:52;98550.63;;;13.12;85.05
46007;BME280;31738;50.188;8.524;2022-09-17T07:33:19;98560.63;;;13.25;84.81
46007;BME280;31738;50.188;8.524;2022-09-17T07:35:57;98557.88;;;13.30;84.05
46007;BME280;31738;50.188;8.524;2022-09-17T07:38:23;98568.63;;;13.30;84.24
46007;BME280;31738;50.188;8.524;2022-09-17T07:41:08;98557.88;;;13.30;83.52
46007;BME280;31738;50.188;8.524;2022-09-17T07:43:35;98563.63;;;13.23;83.49
46007;BME280;31738;50.188;8.524;2022-09-17T07:46:03;98560.41;;;13.21;83.31
46007;BME280;31738;50.188;8.524;2022-09-17T07:48:29;98569.59;;;13.20;83.83
46007;BME280;31738;50.188;8.524;2022-09-17T07:50:55;98566.03;;;13.25;83.28
46007;BME280;31738;50.188;8.524;2022-09-17T07:53:21;98573.22;;;13.29;83.07
46007;BME280;31738;50.188;8.524;2022-09-17T07:55:57;98571.84;;;13.32;82.96
46007;BME280;31738;50.188;8.524;2022-09-17T07:58:27;98576.66;;;13.35;82.93
46007;BME280;31738;50.188;8.524;2022-09-17T08:00:52;98569.94;;;13.32;83.18
46007;BME280;31738;50.188;8.524;2022-09-17T08:03:24;98583.22;;;13.29;83.36
46007;BME280;31738;50.188;8.524;2022-09-17T08:05:49;98582.25;;;13.20;83.25
46007;BME280;31738;50.188;8.524;2022-09-17T08:08:15;98576.97;;;13.15;83.83
46007;BME280;31738;50.188;8.524;2022-09-17T08:10:41;98580.72;;;13.14;83.58
46007;BME280;31738;50.188;8.524;2022-09-17T08:13:07;98582.34;;;13.15;83.30
46007;BME280;31738;50.188;8.524;2022-09-17T08:15:32;98580.97;;;13.17;82.95
46007;BME280;31738;50.188;8.524;2022-09-17T08:17:58;98578.13;;;13.27;82.82
46007;BME280;31738;50.188;8.524;2022-09-17T08:20:24;98595.50;;;13.35;82.29
46007;BME280;31738;50.188;8.524;2022-09-17T08:22:57;98601.00;;;13.43;82.33
46007;BME280;31738;50.188;8.524;2022-09-17T08:25:22;98599.44;;;13.56;81.67
46007;BME280;31738;50.188;8.524;2022-09-17T08:27:52;98603.69;;;13.75;80.91
46007;BME280;31738;50.188;8.524;2022-09-17T08:30:18;98612.28;;;13.91;80.66
46007;BME280;31738;50.188;8.524;2022-09-17T08:32:44;98618.50;;;14.05;80.15
46007;BME280;31738;50.188;8.524;2022-09-17T08:35:12;98626.53;;;14.10;79.26
46007;BME280;31738;50.188;8.524;2022-09-17T08:37:37;98617.50;;;14.01;79.24
46007;BME280;31738;50.188;8.524;2022-09-17T08:40:03;98620.78;;;13.98;79.17
46007;BME280;31738;50.188;8.524;2022-09-17T08:42:45;98619.88;;;14.03;78.50
46007;BME280;31738;50.188;8.524;2022-09-17T08:45:14;98625.97;;;13.81;79.40
46007;BME280;31738;50.188;8.524;2022-09-17T08:47:46;98617.41;;;13.93;78.54
46007;BME280;31738;50.188;8.524;2022-09-17T08:55:39;98615.94;;;14.27;77.80
46007;BME280;31738;50.188;8.524;2022-09-17T09:00:53;98632.16;;;14.54;76.07
46007;BME280;31738;50.188;8.524;2022-09-17T09:06:08;98645.75;;;14.36;76.17
46007;BME280;31738;50.188;8.524;2022-09-17T09:08:50;98647.72;;;14.30;76.00
46007;BME280;31738;50.188;8.524;2022-09-17T09:11:20;98647.66;;;14.03;77.69
46007;BME280;31738;50.188;8.524;2022-09-17T09:13:56;98642.09;;;14.13;76.88
46007;BME280;31738;50.188;8.524;2022-09-17T09:16:25;98641.34;;;14.26;77.03
46007;BME280;31738;50.188;8.524;2022-09-17T09:18:55;98656.16;;;14.42;75.17
46007;BME280;31738;50.188;8.524;2022-09-17T09:21:34;98654.72;;;14.58;75.49
46007;BME280;31738;50.188;8.524;2022-09-17T09:24:22;98674.13;;;14.60;74.01
46007;BME280;31738;50.188;8.524;2022-09-17T09:26:58;98690.31;;;14.60;76.01
46007;BME280;31738;50.188;8.524;2022-09-17T09:29:47;98692.91;;;14.38;77.58
46007;BME280;31738;50.188;8.524;2022-09-17T09:35:35;98669.22;;;13.90;80.10
46007;BME280;31738;50.188;8.524;2022-09-17T09:40:57;98648.94;;;13.92;81.89
46007;BME280;31738;50.188;8.524;2022-09-17T09:43:43;98650.84;;;13.92;81.44
46007;BME280;31738;50.188;8.524;2022-09-17T09:46:44;98624.97;;;13.91;82.28
46007;BME280;31738;50.188;8.524;2022-09-17T09:49:21;98628.88;;;13.98;82.13
46007;BME280;31738;50.188;8.524;2022-09-17T09:54:35;98615.69;;;13.97;81.75
46007;BME280;31738;50.188;8.524;2022-09-17T09:57:07;98622.09;;;14.01;82.15
46007;BME280;31738;50.188;8.524;2022-09-17T09:59:36;98632.00;;;14.05;81.91
46007;BME280;31738;50.188;8.524;2022-09-17T10:02:02;98626.31;;;14.07;82.14
46007;BME280;31738;50.188;8.524;2022-09-17T10:04:28;98631.41;;;14.08;82.10
46007;BME280;31738;50.188;8.524;2022-09-17T10:07:00;98622.50;;;14.08;81.69
46007;BME280;31738;50.188;8.524;2022-09-17T10:09:30;98632.50;;;14.07;81.37
46007;BME280;31738;50.188;8.524;2022-09-17T10:14:37;98642.28;;;14.03;80.53
46007;BME280;31738;50.188;8.524;2022-09-17T10:17:17;98646.38;;;14.01;80.05
46007;BME280;31738;50.188;8.524;2022-09-17T10:22:34;98654.44;;;13.87;80.38
46007;BME280;31738;50.188;8.524;2022-09-17T10:25:03;98656.34;;;13.87;79.71
46007;BME280;31738;50.188;8.524;2022-09-17T10:27:30;98654.53;;;13.82;79.81
46007;BME280;31738;50.188;8.524;2022-09-17T10:30:00;98652.22;;;13.75;80.50
46007;BME280;31738;50.188;8.524;2022-09-17T10:32:26;98652.22;;;13.75;80.41
46007;BME280;31738;50.188;8.524;2022-09-17T10:35:43;98643.41;;;13.70;80.31
46007;BME280;31738;50.188;8.524;2022-09-17T10:37:53;98639.63;;;13.71;80.27
46007;BME280;31738;50.188;8.524;2022-09-17T10:42:45;98630.41;;;13.72;80.17
46007;BME280;31738;50.188;8.524;2022-09-17T10:45:25;98631.81;;;13.69;79.29
46007;BME280;31738;50.188;8.524;2022-09-17T10:47:51;98629.53;;;13.76;79.74
46007;BME280;31738;50.188;8.524;2022-09-17T10:50:19;98634.53;;;13.83;79.51
46007;BME280;31738;50.188;8.524;2022-09-17T10:52:50;98637.16;;;13.88;79.10
46007;BME280;31738;50.188;8.524;2022-09-17T10:55:53;98643.47;;;13.97;78.75
46007;BME280;31738;50.188;8.524;2022-09-17T10:58:36;98635.91;;;14.13;78.30
46007;BME280;31738;50.188;8.524;2022-09-17T11:01:20;98650.00;;;14.23;76.58
46007;BME280;31738;50.188;8.524;2022-09-17T11:06:59;98645.75;;;14.36;76.20
46007;BME280;31738;50.188;8.524;2022-09-17T11:15:17;98657.09;;;14.73;75.23
46007;BME280;31738;50.188;8.524;2022-09-17T11:18:20;98651.09;;;14.76;75.36
46007;BME280;31738;50.188;8.524;2022-09-17T11:29:11;98698.81;;;14.67;74.44
46007;BME280;31738;50.188;8.524;2022-09-17T11:32:09;98696.13;;;14.40;75.82
46007;BME280;31738;50.188;8.524;2022-09-17T11:37:39;98675.22;;;14.00;77.28
46007;BME280;31738;50.188;8.524;2022-09-17T11:42:39;98648.16;;;13.92;78.79
46007;BME280;31738;50.188;8.524;2022-09-17T11:45:16;98631.91;;;14.10;78.47
46007;BME280;31738;50.188;8.524;2022-09-17T11:47:48;98633.06;;;14.36;77.32
46007;BME280;31738;50.188;8.524;2022-09-17T11:50:23;98621.53;;;14.58;77.33
46007;BME280;31738;50.188;8.524;2022-09-17T11:55:43;98627.09;;;14.88;77.31
46007;BME280;31738;50.188;8.524;2022-09-17T12:01:23;98622.41;;;15.16;76.25
46007;BME280;31738;50.188;8.524;2022-09-17T12:04:04;98621.00;;;15.18;74.97
46007;BME280;31738;50.188;8.524;2022-09-17T12:06:45;98621.97;;;15.22;75.48
46007;BME280;31738;50.188;8.524;2022-09-17T12:09:17;98635.38;;;15.27;74.42
46007;BME280;31738;50.188;8.524;2022-09-17T12:11:52;98634.16;;;15.33;73.75
46007;BME280;31738;50.188;8.524;2022-09-17T12:14:22;98642.19;;;15.38;73.62
46007;BME280;31738;50.188;8.524;2022-09-17T12:16:54;98641.94;;;15.49;73.18
46007;BME280;31738;50.188;8.524;2022-09-17T12:19:39;98637.53;;;15.53;72.51
46007;BME280;31738;50.188;8.524;2022-09-17T12:22:12;98638.59;;;15.52;73.07
46007;BME280;31738;50.188;8.524;2022-09-17T12:24:41;98651.16;;;15.48;72.93
46007;BME280;31738;50.188;8.524;2022-09-17T12:27:37;98651.06;;;15.39;72.27
46007;BME280;31738;50.188;8.524;2022-09-17T12:30:10;98648.28;;;15.30;72.38
46007;BME280;31738;50.188;8.524;2022-09-17T12:44:01;98639.00;;;15.59;69.98
46007;BME280;31738;50.188;8.524;2022-09-17T12:52:14;98651.56;;;15.85;67.70
46007;BME280;31738;50.188;8.524;2022-09-17T12:54:58;98660.25;;;15.74;66.68
46007;BME280;31738;50.188;8.524;2022-09-17T12:57:36;98659.59;;;15.68;68.01
46007;BME280;31738;50.188;8.524;2022-09-17T13:00:09;98655.16;;;15.72;68.22
46007;BME280;31738;50.188;8.524;2022-09-17T13:02:51;98645.97;;;15.82;69.13
46007;BME280;31738;50.188;8.524;2022-09-17T13:08:30;98642.19;;;15.91;64.74
46007;BME280;31738;50.188;8.524;2022-09-17T13:16:45;98662.81;;;15.79;65.01
46007;BME280;31738;50.188;8.524;2022-09-17T13:19:27;98669.59;;;15.68;63.80
46007;BME280;31738;50.188;8.524;2022-09-17T13:22:16;98666.66;;;15.56;64.86
46007;BME280;31738;50.188;8.524;2022-09-17T13:24:43;98678.31;;;15.65;64.92
46007;BME280;31738;50.188;8.524;2022-09-17T13:27:23;98662.94;;;15.74;64.76
46007;BME280;31738;50.188;8.524;2022-09-17T13:37:42;98677.38;;;15.91;62.43
46007;BME280;31738;50.188;8.524;2022-09-17T13:40:23;98679.75;;;15.93;62.30
46007;BME280;31738;50.188;8.524;2022-09-17T13:45:20;98672.88;;;16.09;63.22
46007;BME280;31738;50.188;8.524;2022-09-17T13:47:54;98685.66;;;16.17;62.60
46007;BME280;31738;50.188;8.524;2022-09-17T13:50:32;98683.25;;;16.15;62.56
46007;BME280;31738;50.188;8.524;2022-09-17T13:53:07;98689.09;;;16.09;61.81
46007;BME280;31738;50.188;8.524;2022-09-17T13:55:50;98700.19;;;15.99;62.33
46007;BME280;31738;50.188;8.524;2022-09-17T14:05:57;98691.50;;;15.88;62.39
46007;BME280;31738;50.188;8.524;2022-09-17T14:19:02;98756.63;;;15.70;63.37
46007;BME280;31738;50.188;8.524;2022-09-17T14:21:32;98750.06;;;15.49;66.84
46007;BME280;31738;50.188;8.524;2022-09-17T14:24:03;98741.91;;;14.99;68.11
46007;BME280;31738;50.188;8.524;2022-09-17T14:27:04;98699.13;;;14.52;71.06
46007;BME280;31738;50.188;8.524;2022-09-17T14:32:55;98682.72;;;14.03;74.87
46007;BME280;31738;50.188;8.524;2022-09-17T14:35:36;98658.66;;;13.93;75.87
46007;BME280;31738;50.188;8.524;2022-09-17T14:41:38;98617.59;;;13.96;77.88
46007;BME280;31738;50.188;8.524;2022-09-17T14:46:15;98583.44;;;14.05;79.65
46007;BME280;31738;50.188;8.524;2022-09-17T14:48:43;98583.97;;;14.07;79.03
46007;BME280;31738;50.188;8.524;2022-09-17T14:54:44;98568.56;;;14.08;79.36
46007;BME280;31738;50.188;8.524;2022-09-17T15:02:21;98562.56;;;13.97;80.17
46007;BME280;31738;50.188;8.524;2022-09-17T15:04:47;98568.94;;;14.01;80.47
46007;BME280;31738;50.188;8.524;2022-09-17T15:07:13;98561.38;;;14.03;80.68
46007;BME280;31738;50.188;8.524;2022-09-17T15:09:39;98564.28;;;14.07;80.59
46007;BME280;31738;50.188;8.524;2022-09-17T15:12:05;98573.34;;;14.11;80.01
46007;BME280;31738;50.188;8.524;2022-09-17T15:14:35;98567.19;;;14.10;80.45
46007;BME280;31738;50.188;8.524;2022-09-17T15:17:05;98567.97;;;14.11;80.26
46007;BME280;31738;50.188;8.524;2022-09-17T15:19:43;98570.06;;;14.00;79.90
46007;BME280;31738;50.188;8.524;2022-09-17T15:22:28;98577.75;;;13.93;80.27
46007;BME280;31738;50.188;8.524;2022-09-17T15:25:16;98565.78;;;13.99;80.49
46007;BME280;31738;50.188;8.524;2022-09-17T15:27:47;98572.97;;;14.04;80.19
46007;BME280;31738;50.188;8.524;2022-09-17T15:30:24;98570.19;;;14.09;79.95
46007;BME280;31738;50.188;8.524;2022-09-17T15:33:12;98569.75;;;14.15;79.95
46007;BME280;31738;50.188;8.524;2022-09-17T15:38:53;98598.75;;;14.10;79.36
46007;BME280;31738;50.188;8.524;2022-09-17T15:41:31;98612.59;;;14.03;78.67
46007;BME280;31738;50.188;8.524;2022-09-17T15:46:40;98605.31;;;13.90;80.12
46007;BME280;31738;50.188;8.524;2022-09-17T15:49:26;98592.88;;;13.62;79.51
46007;BME280;31738;50.188;8.524;2022-09-17T15:51:52;98576.59;;;13.53;80.92
46007;BME280;31738;50.188;8.524;2022-09-17T15:54:29;98571.44;;;13.38;81.32
46007;BME280;31738;50.188;8.524;2022-09-17T15:56:59;98552.47;;;13.30;81.28
46007;BME280;31738;50.188;8.524;2022-09-17T15:59:27;98545.72;;;13.14;81.11
46007;BME280;31738;50.188;8.524;2022-09-17T16:01:55;98538.13;;;13.02;81.57
46007;BME280;31738;50.188;8.524;2022-09-17T16:04:29;98524.94;;;13.01;81.29
46007;BME280;31738;50.188;8.524;2022-09-17T16:09:47;98528.66;;;13.05;81.70